KCKI

Williamsburg Regional Airport

Kingstree, South Carolina, USA
METAR KCKI 222035Z AUTO 00000KT 10SM CLR 18/00 A3027 RMK AO2
Observed Flight Rules
Oct-22 @ 20:35 UTC (14 minutes ago) Visual Flight Rules
Visibility Clouds
10 miles
  • Clear skies
Temperatures Readings
Current 18°C / 64°F
Dewpoint 0°C / 32°F
Humidity 30%
Altimeter 30.27" Hg
Pressure 1025 hPa
Elevation 21
METAR KCKI 222035Z AUTO 00000KT 10SM CLR 18/00 A3027 RMK AO2
Observed Flight Rules
Oct-22 @ 20:35 UTC
(14 minutes ago)
VFR
Clouds
  • Clear skies
Temperature Dewpoint
18°C / 64°F 0°C / 32°F
Humidity Altimeter Pressure
30% 30.27" Hg 1025 hPa